sensor_id;sensor_type;location;lat;lon;timestamp;pressure;altitude;pressure_sealevel;temperature;humidity
74544;BME280;63016;55.030;38.710;2022-12-11T00:00:45;99166.34;;;3.51;70.04
74544;BME280;63016;55.030;38.710;2022-12-11T00:03:11;99166.22;;;3.52;70.23
74544;BME280;63016;55.030;38.710;2022-12-11T00:05:41;99170.44;;;3.53;69.86
74544;BME280;63016;55.030;38.710;2022-12-11T00:08:06;99177.34;;;3.53;69.85
74544;BME280;63016;55.030;38.710;2022-12-11T00:10:32;99166.09;;;3.54;70.07
74544;BME280;63016;55.030;38.710;2022-12-11T00:12:58;99170.28;;;3.55;69.75
74544;BME280;63016;55.030;38.710;2022-12-11T00:15:23;99170.28;;;3.55;69.75
74544;BME280;63016;55.030;38.710;2022-12-11T00:17:49;99166.75;;;3.56;70.13
74544;BME280;63016;55.030;38.710;2022-12-11T00:20:14;99171.09;;;3.55;70.19
74544;BME280;63016;55.030;38.710;2022-12-11T00:22:40;99166.91;;;3.54;69.84
74544;BME280;63016;55.030;38.710;2022-12-11T00:25:07;99166.91;;;3.54;69.81
74544;BME280;63016;55.030;38.710;2022-12-11T00:27:32;99160.94;;;3.54;70.08
74544;BME280;63016;55.030;38.710;2022-12-11T00:29:58;99161.59;;;3.56;70.07
74544;BME280;63016;55.030;38.710;2022-12-11T00:32:23;99155.78;;;3.54;69.69
74544;BME280;63016;55.030;38.710;2022-12-11T00:34:49;99168.38;;;3.57;70.09
74544;BME280;63016;55.030;38.710;2022-12-11T00:37:15;99164.03;;;3.57;69.96
74544;BME280;63016;55.030;38.710;2022-12-11T00:39:40;99164.88;;;3.58;69.99
74544;BME280;63016;55.030;38.710;2022-12-11T00:42:06;99163.09;;;3.58;70.19
74544;BME280;63016;55.030;38.710;2022-12-11T00:44:33;99163.22;;;3.57;69.85
74544;BME280;63016;55.030;38.710;2022-12-11T00:46:58;99158.22;;;3.55;69.79
74544;BME280;63016;55.030;38.710;2022-12-11T00:49:24;99160.53;;;3.58;69.65
74544;BME280;63016;55.030;38.710;2022-12-11T00:51:50;99146.13;;;3.56;70.08
74544;BME280;63016;55.030;38.710;2022-12-11T00:54:16;99151.81;;;3.59;69.85
74544;BME280;63016;55.030;38.710;2022-12-11T00:56:41;99152.09;;;3.56;69.91
74544;BME280;63016;55.030;38.710;2022-12-11T00:59:07;99156.44;;;3.56;69.88
74544;BME280;63016;55.030;38.710;2022-12-11T01:01:33;99151.97;;;3.58;70.09
74544;BME280;63016;55.030;38.710;2022-12-11T01:03:58;99151.97;;;3.58;69.82
74544;BME280;63016;55.030;38.710;2022-12-11T01:06:25;99151.69;;;3.61;69.89
74544;BME280;63016;55.030;38.710;2022-12-11T01:08:51;99155.06;;;3.61;69.87
74544;BME280;63016;55.030;38.710;2022-12-11T01:11:36;99163.63;;;3.62;70.05
74544;BME280;63016;55.030;38.710;2022-12-11T01:14:02;99160.22;;;3.61;69.88
74544;BME280;63016;55.030;38.710;2022-12-11T01:16:28;99164.72;;;3.59;70.03
74544;BME280;63016;55.030;38.710;2022-12-11T01:18:53;99167.00;;;3.63;70.05
74544;BME280;63016;55.030;38.710;2022-12-11T01:21:19;99162.16;;;3.59;69.71
74544;BME280;63016;55.030;38.710;2022-12-11T01:23:44;99173.94;;;3.62;69.61
74544;BME280;63016;55.030;38.710;2022-12-11T01:26:13;99166.34;;;3.60;70.13
74544;BME280;63016;55.030;38.710;2022-12-11T01:28:39;99168.13;;;3.60;69.76
74544;BME280;63016;55.030;38.710;2022-12-11T01:31:14;99163.63;;;3.62;69.98
74544;BME280;63016;55.030;38.710;2022-12-11T01:33:40;99170.53;;;3.61;70.01
74544;BME280;63016;55.030;38.710;2022-12-11T01:36:11;99168.66;;;3.64;70.06
74544;BME280;63016;55.030;38.710;2022-12-11T01:38:37;99168.66;;;3.64;70.00
74544;BME280;63016;55.030;38.710;2022-12-11T01:41:02;99167.84;;;3.63;69.74
74544;BME280;63016;55.030;38.710;2022-12-11T01:43:28;99176.25;;;3.65;69.79
74544;BME280;63016;55.030;38.710;2022-12-11T01:45:53;99172.03;;;3.64;69.78
74544;BME280;63016;55.030;38.710;2022-12-11T01:48:22;99168.78;;;3.62;69.93
74544;BME280;63016;55.030;38.710;2022-12-11T01:50:53;99169.47;;;3.64;70.29
74544;BME280;63016;55.030;38.710;2022-12-11T01:53:22;99166.88;;;3.64;69.90
74544;BME280;63016;55.030;38.710;2022-12-11T01:55:50;99156.56;;;3.64;70.03
74544;BME280;63016;55.030;38.710;2022-12-11T01:58:20;99154.81;;;3.65;69.67
74544;BME280;63016;55.030;38.710;2022-12-11T02:00:47;99160.09;;;3.63;69.87
74544;BME280;63016;55.030;38.710;2022-12-11T02:03:13;99162.69;;;3.63;69.70
74544;BME280;63016;55.030;38.710;2022-12-11T02:05:38;99172.84;;;3.65;69.94
74544;BME280;63016;55.030;38.710;2022-12-11T02:08:06;99175.44;;;3.65;69.91
74544;BME280;63016;55.030;38.710;2022-12-11T02:10:47;99174.75;;;3.63;69.80
74544;BME280;63016;55.030;38.710;2022-12-11T02:13:24;99176.25;;;3.65;69.74
74544;BME280;63016;55.030;38.710;2022-12-11T02:18:52;99173.66;;;3.65;69.92
74544;BME280;63016;55.030;38.710;2022-12-11T02:21:27;99174.63;;;3.64;69.86
74544;BME280;63016;55.030;38.710;2022-12-11T02:29:24;99178.16;;;3.63;70.06
74544;BME280;63016;55.030;38.710;2022-12-11T02:32:02;99184.38;;;3.70;69.46
74544;BME280;63016;55.030;38.710;2022-12-11T02:34:36;99183.03;;;3.66;69.55
74544;BME280;63016;55.030;38.710;2022-12-11T02:37:08;99185.91;;;3.63;69.70
74544;BME280;63016;55.030;38.710;2022-12-11T02:39:37;99190.38;;;3.61;69.95
74544;BME280;63016;55.030;38.710;2022-12-11T02:42:05;99192.13;;;3.60;69.54
74544;BME280;63016;55.030;38.710;2022-12-11T02:44:32;99188.91;;;3.58;69.74
74544;BME280;63016;55.030;38.710;2022-12-11T02:47:00;99190.38;;;3.61;69.72
74544;BME280;63016;55.030;38.710;2022-12-11T02:49:28;99192.94;;;3.61;69.54
74544;BME280;63016;55.030;38.710;2022-12-11T02:51:55;99194.56;;;3.62;70.04
74544;BME280;63016;55.030;38.710;2022-12-11T02:54:28;99213.44;;;3.63;70.12
74544;BME280;63016;55.030;38.710;2022-12-11T02:57:07;99192.94;;;3.61;69.79
74544;BME280;63016;55.030;38.710;2022-12-11T02:59:52;99200.69;;;3.61;70.17
74544;BME280;63016;55.030;38.710;2022-12-11T03:02:17;99208.16;;;3.64;69.81
74544;BME280;63016;55.030;38.710;2022-12-11T03:04:44;99216.97;;;3.61;69.90
74544;BME280;63016;55.030;38.710;2022-12-11T03:07:17;99215.22;;;3.62;69.88
74544;BME280;63016;55.030;38.710;2022-12-11T03:09:48;99222.84;;;3.64;69.83
74544;BME280;63016;55.030;38.710;2022-12-11T03:12:19;99220.25;;;3.64;69.90
74544;BME280;63016;55.030;38.710;2022-12-11T03:14:47;99228.81;;;3.64;69.86
74544;BME280;63016;55.030;38.710;2022-12-11T03:17:14;99225.41;;;3.64;69.54
74544;BME280;63016;55.030;38.710;2022-12-11T03:22:52;99227.03;;;3.65;69.86
74544;BME280;63016;55.030;38.710;2022-12-11T03:25:29;99233.16;;;3.64;69.75
74544;BME280;63016;55.030;38.710;2022-12-11T03:28:05;99240.06;;;3.63;69.71
74544;BME280;63016;55.030;38.710;2022-12-11T03:30:35;99237.63;;;3.61;69.80
74544;BME280;63016;55.030;38.710;2022-12-11T03:33:10;99236.81;;;3.61;69.66
74544;BME280;63016;55.030;38.710;2022-12-11T03:35:41;99229.06;;;3.61;69.86
74544;BME280;63016;55.030;38.710;2022-12-11T03:38:12;99237.50;;;3.63;69.58
74544;BME280;63016;55.030;38.710;2022-12-11T03:40:41;99241.97;;;3.61;69.86
74544;BME280;63016;55.030;38.710;2022-12-11T03:43:10;99236.00;;;3.60;69.97
74544;BME280;63016;55.030;38.710;2022-12-11T03:45:38;99247.13;;;3.61;69.67
74544;BME280;63016;55.030;38.710;2022-12-11T03:48:05;99238.03;;;3.57;69.58
74544;BME280;63016;55.030;38.710;2022-12-11T03:50:33;99246.16;;;3.62;69.84
74544;BME280;63016;55.030;38.710;2022-12-11T03:53:00;99241.81;;;3.63;69.50
74544;BME280;63016;55.030;38.710;2022-12-11T03:55:27;99253.91;;;3.62;69.85
74544;BME280;63016;55.030;38.710;2022-12-11T03:57:53;99250.50;;;3.61;69.55
74544;BME280;63016;55.030;38.710;2022-12-11T04:00:20;99246.16;;;3.62;69.72
74544;BME280;63016;55.030;38.710;2022-12-11T04:02:46;99245.22;;;3.63;69.57
74544;BME280;63016;55.030;38.710;2022-12-11T04:05:32;99253.91;;;3.62;69.71
74544;BME280;63016;55.030;38.710;2022-12-11T04:07:57;99247.94;;;3.61;69.79
74544;BME280;63016;55.030;38.710;2022-12-11T04:10:23;99257.28;;;3.63;69.49
74544;BME280;63016;55.030;38.710;2022-12-11T04:12:48;99250.00;;;3.58;69.60
74544;BME280;63016;55.030;38.710;2022-12-11T04:15:14;99260.72;;;3.63;69.72
74544;BME280;63016;55.030;38.710;2022-12-11T04:17:39;99265.88;;;3.63;69.75
74544;BME280;63016;55.030;38.710;2022-12-11T04:20:24;99272.66;;;3.64;69.79
74544;BME280;63016;55.030;38.710;2022-12-11T04:23:13;99268.44;;;3.63;69.42
74544;BME280;63016;55.030;38.710;2022-12-11T04:26:13;99269.38;;;3.62;69.30
74544;BME280;63016;55.030;38.710;2022-12-11T04:28:40;99277.13;;;3.62;69.70
74544;BME280;63016;55.030;38.710;2022-12-11T04:31:10;99282.41;;;3.60;69.60
74544;BME280;63016;55.030;38.710;2022-12-11T04:33:36;99282.28;;;3.62;69.86
74544;BME280;63016;55.030;38.710;2022-12-11T04:36:01;99280.66;;;3.61;69.76
74544;BME280;63016;55.030;38.710;2022-12-11T04:38:27;99282.28;;;3.62;69.58
74544;BME280;63016;55.030;38.710;2022-12-11T04:41:13;99293.28;;;3.64;69.85
74544;BME280;63016;55.030;38.710;2022-12-11T04:43:39;99289.19;;;3.61;69.62
74544;BME280;63016;55.030;38.710;2022-12-11T04:46:17;99287.03;;;3.57;69.53
74544;BME280;63016;55.030;38.710;2022-12-11T04:48:43;99298.72;;;3.61;69.83
74544;BME280;63016;55.030;38.710;2022-12-11T04:51:09;99303.88;;;3.61;69.88
74544;BME280;63016;55.030;38.710;2022-12-11T04:53:35;99309.72;;;3.63;69.90
74544;BME280;63016;55.030;38.710;2022-12-11T04:56:04;99317.56;;;3.61;69.35
74544;BME280;63016;55.030;38.710;2022-12-11T04:58:29;99326.13;;;3.62;69.66
74544;BME280;63016;55.030;38.710;2022-12-11T05:00:55;99322.63;;;3.63;69.56
74544;BME280;63016;55.030;38.710;2022-12-11T05:03:21;99310.53;;;3.64;69.83
74544;BME280;63016;55.030;38.710;2022-12-11T05:05:51;99307.97;;;3.64;69.83
74544;BME280;63016;55.030;38.710;2022-12-11T05:08:18;99324.25;;;3.64;69.67
74544;BME280;63016;55.030;38.710;2022-12-11T05:10:53;99320.84;;;3.64;69.80
74544;BME280;63016;55.030;38.710;2022-12-11T05:13:18;99324.25;;;3.64;69.31
74544;BME280;63016;55.030;38.710;2022-12-11T05:15:44;99319.34;;;3.61;69.91
74544;BME280;63016;55.030;38.710;2022-12-11T05:18:09;99319.09;;;3.64;69.50
74544;BME280;63016;55.030;38.710;2022-12-11T05:20:35;99326.00;;;3.64;69.67
74544;BME280;63016;55.030;38.710;2022-12-11T05:23:00;99329.41;;;3.64;69.52
74544;BME280;63016;55.030;38.710;2022-12-11T05:25:26;99321.66;;;3.64;69.39
74544;BME280;63016;55.030;38.710;2022-12-11T05:27:52;99323.28;;;3.65;69.68
74544;BME280;63016;55.030;38.710;2022-12-11T05:30:17;99314.47;;;3.58;69.79
74544;BME280;63016;55.030;38.710;2022-12-11T05:32:43;99319.09;;;3.64;69.67
74544;BME280;63016;55.030;38.710;2022-12-11T05:35:08;99330.22;;;3.65;69.60
74544;BME280;63016;55.030;38.710;2022-12-11T05:37:34;99328.59;;;3.64;69.40
74544;BME280;63016;55.030;38.710;2022-12-11T05:39:59;99328.59;;;3.64;69.58
74544;BME280;63016;55.030;38.710;2022-12-11T05:42:25;99332.81;;;3.65;69.91
74544;BME280;63016;55.030;38.710;2022-12-11T05:44:50;99342.97;;;3.66;69.82
74544;BME280;63016;55.030;38.710;2022-12-11T05:47:16;99340.53;;;3.65;69.88
74544;BME280;63016;55.030;38.710;2022-12-11T05:49:44;99343.25;;;3.63;69.63
74544;BME280;63016;55.030;38.710;2022-12-11T05:52:11;99344.88;;;3.64;69.78
74544;BME280;63016;55.030;38.710;2022-12-11T05:54:37;99342.16;;;3.66;69.45
74544;BME280;63016;55.030;38.710;2022-12-11T05:57:02;99343.94;;;3.65;69.44
74544;BME280;63016;55.030;38.710;2022-12-11T05:59:28;99353.28;;;3.66;69.52
74544;BME280;63016;55.030;38.710;2022-12-11T06:01:53;99362.00;;;3.65;69.94
74544;BME280;63016;55.030;38.710;2022-12-11T06:04:19;99368.78;;;3.66;69.79
74544;BME280;63016;55.030;38.710;2022-12-11T06:06:44;99368.91;;;3.65;69.81
74544;BME280;63016;55.030;38.710;2022-12-11T06:09:13;99365.53;;;3.64;69.71
74544;BME280;63016;55.030;38.710;2022-12-11T06:11:39;99367.81;;;3.67;69.60
74544;BME280;63016;55.030;38.710;2022-12-11T06:14:04;99381.41;;;3.69;69.85
74544;BME280;63016;55.030;38.710;2022-12-11T06:16:30;99377.22;;;3.68;69.63
74544;BME280;63016;55.030;38.710;2022-12-11T06:18:57;99389.28;;;3.68;69.84
74544;BME280;63016;55.030;38.710;2022-12-11T06:21:31;99378.03;;;3.69;69.80
74544;BME280;63016;55.030;38.710;2022-12-11T06:23:58;99381.41;;;3.69;69.66
74544;BME280;63016;55.030;38.710;2022-12-11T06:26:25;99392.41;;;3.71;69.57
74544;BME280;63016;55.030;38.710;2022-12-11T06:28:51;99394.03;;;3.72;70.08
74544;BME280;63016;55.030;38.710;2022-12-11T06:31:18;99396.75;;;3.71;69.70
74544;BME280;63016;55.030;38.710;2022-12-11T06:33:44;99397.56;;;3.71;69.83
74544;BME280;63016;55.030;38.710;2022-12-11T06:36:13;99399.06;;;3.74;70.11
74544;BME280;63016;55.030;38.710;2022-12-11T08:02:15;99468.00;;;3.22;73.43
74544;BME280;63016;55.030;38.710;2022-12-11T08:04:40;99472.19;;;3.44;72.70
74544;BME280;63016;55.030;38.710;2022-12-11T08:07:06;99469.78;;;3.61;72.11
74544;BME280;63016;55.030;38.710;2022-12-11T08:09:31;99477.28;;;3.74;71.76
74544;BME280;63016;55.030;38.710;2022-12-11T08:11:56;99482.63;;;3.82;71.50
74544;BME280;63016;55.030;38.710;2022-12-11T08:14:22;99494.03;;;3.90;71.23
74544;BME280;63016;55.030;38.710;2022-12-11T08:16:48;99494.31;;;3.96;71.15
74544;BME280;63016;55.030;38.710;2022-12-11T08:19:14;99491.31;;;4.01;71.18
74544;BME280;63016;55.030;38.710;2022-12-11T08:21:40;99508.19;;;4.05;71.12
74544;BME280;63016;55.030;38.710;2022-12-11T08:24:06;99507.78;;;4.09;71.20
74544;BME280;63016;55.030;38.710;2022-12-11T08:26:32;99490.41;;;4.11;70.97
74544;BME280;63016;55.030;38.710;2022-12-11T08:28:59;99486.72;;;4.14;70.79
74544;BME280;63016;55.030;38.710;2022-12-11T08:31:25;99494.22;;;4.17;70.91
74544;BME280;63016;55.030;38.710;2022-12-11T08:33:51;99487.28;;;4.18;71.28
74544;BME280;63016;55.030;38.710;2022-12-11T08:36:21;99491.91;;;4.24;70.96
74544;BME280;63016;55.030;38.710;2022-12-11T08:38:48;99490.03;;;4.26;70.94
74544;BME280;63016;55.030;38.710;2022-12-11T08:41:19;99490.69;;;4.28;70.83
74544;BME280;63016;55.030;38.710;2022-12-11T08:43:45;99493.13;;;4.29;70.85
74544;BME280;63016;55.030;38.710;2022-12-11T08:46:11;99492.72;;;4.34;70.97
74544;BME280;63016;55.030;38.710;2022-12-11T08:48:38;99493.41;;;4.36;70.87
74544;BME280;63016;55.030;38.710;2022-12-11T08:51:06;99498.44;;;4.37;70.79
74544;BME280;63016;55.030;38.710;2022-12-11T08:53:32;99501.69;;;4.39;70.92
74544;BME280;63016;55.030;38.710;2022-12-11T08:56:03;99505.63;;;4.44;70.79
74544;BME280;63016;55.030;38.710;2022-12-11T08:58:29;99502.94;;;4.45;70.72
74544;BME280;63016;55.030;38.710;2022-12-11T09:00:55;99503.47;;;4.49;70.99
74544;BME280;63016;55.030;38.710;2022-12-11T09:03:20;99507.72;;;4.50;70.87
74544;BME280;63016;55.030;38.710;2022-12-11T09:05:46;99510.16;;;4.51;70.74
74544;BME280;63016;55.030;38.710;2022-12-11T09:08:11;99514.19;;;4.54;70.58
74544;BME280;63016;55.030;38.710;2022-12-11T09:10:37;99520.19;;;4.54;70.69
74544;BME280;63016;55.030;38.710;2022-12-11T09:13:02;99515.88;;;4.55;70.81
74544;BME280;63016;55.030;38.710;2022-12-11T09:15:28;99519.25;;;4.55;70.78
74544;BME280;63016;55.030;38.710;2022-12-11T09:17:53;99516.69;;;4.55;70.72
74544;BME280;63016;55.030;38.710;2022-12-11T09:20:19;99524.28;;;4.57;70.57
74544;BME280;63016;55.030;38.710;2022-12-11T09:22:44;99517.34;;;4.57;70.46
74544;BME280;63016;55.030;38.710;2022-12-11T09:25:10;99518.03;;;4.59;70.60
74544;BME280;63016;55.030;38.710;2022-12-11T09:27:36;99519.78;;;4.59;70.62
74544;BME280;63016;55.030;38.710;2022-12-11T09:30:02;99529.84;;;4.62;70.56
74544;BME280;63016;55.030;38.710;2022-12-11T09:32:28;99528.09;;;4.62;70.55
74544;BME280;63016;55.030;38.710;2022-12-11T09:34:54;99530.81;;;4.61;70.46
74544;BME280;63016;55.030;38.710;2022-12-11T09:37:20;99530.53;;;4.64;70.57
74544;BME280;63016;55.030;38.710;2022-12-11T09:39:48;99537.34;;;4.65;70.60
74544;BME280;63016;55.030;38.710;2022-12-11T09:42:20;99541.56;;;4.66;70.54
74544;BME280;63016;55.030;38.710;2022-12-11T09:45:00;99543.88;;;4.69;70.53
74544;BME280;63016;55.030;38.710;2022-12-11T09:52:38;99539.94;;;4.65;70.57
74544;BME280;63016;55.030;38.710;2022-12-11T09:55:16;99534.47;;;4.68;70.79
74544;BME280;63016;55.030;38.710;2022-12-11T10:06:23;99543.03;;;4.69;70.39
74544;BME280;63016;55.030;38.710;2022-12-11T10:17:42;99569.97;;;4.66;70.37
74544;BME280;63016;55.030;38.710;2022-12-11T10:20:22;99571.06;;;4.63;70.79
74544;BME280;63016;55.030;38.710;2022-12-11T10:22:49;99566.69;;;4.64;70.28
74544;BME280;63016;55.030;38.710;2022-12-11T10:25:25;99562.38;;;4.64;70.52
74544;BME280;63016;55.030;38.710;2022-12-11T10:27:52;99562.50;;;4.63;70.24
74544;BME280;63016;55.030;38.710;2022-12-11T10:30:26;99553.09;;;4.62;70.37
74544;BME280;63016;55.030;38.710;2022-12-11T10:33:13;99552.28;;;4.61;70.55
74544;BME280;63016;55.030;38.710;2022-12-11T10:38:27;99562.78;;;4.60;70.63
74544;BME280;63016;55.030;38.710;2022-12-11T10:41:19;99560.19;;;4.60;70.53
74544;BME280;63016;55.030;38.710;2022-12-11T10:43:45;99561.13;;;4.59;70.42
74544;BME280;63016;55.030;38.710;2022-12-11T10:48:48;99554.22;;;4.50;70.77
74544;BME280;63016;55.030;38.710;2022-12-11T10:51:14;99557.47;;;4.52;70.54
74544;BME280;63016;55.030;38.710;2022-12-11T10:53:41;99546.47;;;4.50;70.21
74544;BME280;63016;55.030;38.710;2022-12-11T10:56:10;99558.28;;;4.52;71.29
74544;BME280;63016;55.030;38.710;2022-12-11T10:58:39;99559.38;;;4.59;71.54
74544;BME280;63016;55.030;38.710;2022-12-11T11:01:17;99563.84;;;4.67;71.16
74544;BME280;63016;55.030;38.710;2022-12-11T11:04:05;99563.31;;;4.73;71.40
74544;BME280;63016;55.030;38.710;2022-12-11T11:06:32;99557.88;;;4.76;71.06
74544;BME280;63016;55.030;38.710;2022-12-11T11:08:59;99548.91;;;4.80;71.51
74544;BME280;63016;55.030;38.710;2022-12-11T11:11:29;99545.50;;;4.89;71.32
74544;BME280;63016;55.030;38.710;2022-12-11T11:16:38;99557.19;;;4.94;70.37
74544;BME280;63016;55.030;38.710;2022-12-11T11:19:05;99550.38;;;4.93;70.63
74544;BME280;63016;55.030;38.710;2022-12-11T11:21:32;99548.47;;;4.95;70.65
74544;BME280;63016;55.030;38.710;2022-12-11T11:23:58;99548.47;;;4.95;70.75
74544;BME280;63016;55.030;38.710;2022-12-11T11:26:24;99542.50;;;4.94;70.44
74544;BME280;63016;55.030;38.710;2022-12-11T11:28:56;99547.66;;;4.94;70.67
74544;BME280;63016;55.030;38.710;2022-12-11T11:31:32;99563.44;;;5.01;70.20
74544;BME280;63016;55.030;38.710;2022-12-11T11:34:06;99567.25;;;4.97;70.61
74544;BME280;63016;55.030;38.710;2022-12-11T11:36:34;99564.00;;;4.95;70.74
74544;BME280;63016;55.030;38.710;2022-12-11T11:44:07;99558.28;;;4.91;70.59
74544;BME280;63016;55.030;38.710;2022-12-11T11:46:52;99559.91;;;4.92;70.43
74544;BME280;63016;55.030;38.710;2022-12-11T11:52:48;99554.47;;;4.95;70.35
74544;BME280;63016;55.030;38.710;2022-12-11T11:55:36;99551.06;;;4.95;70.47
74544;BME280;63016;55.030;38.710;2022-12-11T11:58:14;99542.75;;;4.91;70.50
74544;BME280;63016;55.030;38.710;2022-12-11T12:00:40;99550.78;;;4.88;69.98
74544;BME280;63016;55.030;38.710;2022-12-11T12:03:12;99557.88;;;4.86;70.23
74544;BME280;63016;55.030;38.710;2022-12-11T12:14:07;99551.19;;;4.93;70.51
74544;BME280;63016;55.030;38.710;2022-12-11T12:25:40;99550.94;;;4.86;70.18
74544;BME280;63016;55.030;38.710;2022-12-11T12:33:56;99556.66;;;4.80;70.33
74544;BME280;63016;55.030;38.710;2022-12-11T12:42:23;99571.59;;;4.77;70.07
74544;BME280;63016;55.030;38.710;2022-12-11T12:44:58;99566.69;;;4.74;70.05
74544;BME280;63016;55.030;38.710;2022-12-11T12:47:31;99564.41;;;4.71;70.47
74544;BME280;63016;55.030;38.710;2022-12-11T12:49:58;99562.91;;;4.68;70.06
74544;BME280;63016;55.030;38.710;2022-12-11T12:52:31;99557.22;;;4.64;70.44
74544;BME280;63016;55.030;38.710;2022-12-11T12:55:03;99550.66;;;4.60;70.04
74544;BME280;63016;55.030;38.710;2022-12-11T12:57:44;99557.59;;;4.60;69.77
74544;BME280;63016;55.030;38.710;2022-12-11T13:00:11;99552.69;;;4.57;70.27
74544;BME280;63016;55.030;38.710;2022-12-11T13:02:48;99538.41;;;4.53;70.06
74544;BME280;63016;55.030;38.710;2022-12-11T13:05:26;99548.75;;;4.53;70.22
74544;BME280;63016;55.030;38.710;2022-12-11T13:07:58;99546.31;;;4.51;69.90
74544;BME280;63016;55.030;38.710;2022-12-11T13:12:50;99549.16;;;4.48;70.10
74544;BME280;63016;55.030;38.710;2022-12-11T13:15:27;99546.56;;;4.48;70.28
74544;BME280;63016;55.030;38.710;2022-12-11T13:17:54;99539.91;;;4.46;69.98
74544;BME280;63016;55.030;38.710;2022-12-11T13:20:22;99545.09;;;4.46;69.94
74544;BME280;63016;55.030;38.710;2022-12-11T13:23:06;99544.13;;;4.47;70.26
74544;BME280;63016;55.030;38.710;2022-12-11T13:25:51;99549.31;;;4.47;70.13
74544;BME280;63016;55.030;38.710;2022-12-11T13:33:41;99547.66;;;4.36;70.11
74544;BME280;63016;55.030;38.710;2022-12-11T13:38:33;99557.59;;;4.31;70.46
74544;BME280;63016;55.030;38.710;2022-12-11T13:40:59;99555.25;;;4.28;70.48
74544;BME280;63016;55.030;38.710;2022-12-11T13:43:28;99556.63;;;4.32;70.72
74544;BME280;63016;55.030;38.710;2022-12-11T13:45:59;99560.03;;;4.32;70.44
74544;BME280;63016;55.030;38.710;2022-12-11T13:48:29;99559.75;;;4.35;70.40
74544;BME280;63016;55.030;38.710;2022-12-11T13:50:58;99551.16;;;4.35;70.25
74544;BME280;63016;55.030;38.710;2022-12-11T13:53:24;99540.97;;;4.33;70.10
74544;BME280;63016;55.030;38.710;2022-12-11T13:56:02;99535.00;;;4.33;70.36
74544;BME280;63016;55.030;38.710;2022-12-11T13:58:29;99558.50;;;4.30;70.32
74544;BME280;63016;55.030;38.710;2022-12-11T14:01:20;99561.09;;;4.30;70.65
74544;BME280;63016;55.030;38.710;2022-12-11T14:04:02;99549.00;;;4.30;70.30
74544;BME280;63016;55.030;38.710;2022-12-11T14:06:29;99542.19;;;4.29;70.46
74544;BME280;63016;55.030;38.710;2022-12-11T14:08:58;99542.19;;;4.29;70.33
74544;BME280;63016;55.030;38.710;2022-12-11T14:11:29;99539.91;;;4.26;70.30
74544;BME280;63016;55.030;38.710;2022-12-11T14:13:57;99535.66;;;4.25;70.29
74544;BME280;63016;55.030;38.710;2022-12-11T14:16:25;99531.44;;;4.24;70.34
74544;BME280;63016;55.030;38.710;2022-12-11T14:18:52;99525.63;;;4.22;70.14
74544;BME280;63016;55.030;38.710;2022-12-11T14:21:23;99514.88;;;4.17;70.27
74544;BME280;63016;55.030;38.710;2022-12-11T14:23:55;99513.09;;;4.18;70.47
74544;BME280;63016;55.030;38.710;2022-12-11T14:26:25;99502.94;;;4.16;70.28
74544;BME280;63016;55.030;38.710;2022-12-11T14:28:52;99492.19;;;4.11;70.46
74544;BME280;63016;55.030;38.710;2022-12-11T14:33:59;99491.75;;;4.06;70.28
74544;BME280;63016;55.030;38.710;2022-12-11T14:36:27;99492.69;;;4.05;70.32
74544;BME280;63016;55.030;38.710;2022-12-11T14:39:10;99491.88;;;4.04;70.64
74544;BME280;63016;55.030;38.710;2022-12-11T14:42:01;99495.16;;;4.06;70.55
74544;BME280;63016;55.030;38.710;2022-12-11T14:44:33;99494.47;;;4.04;70.53
74544;BME280;63016;55.030;38.710;2022-12-11T14:47:02;99491.88;;;4.04;70.62
74544;BME280;63016;55.030;38.710;2022-12-11T14:50:11;99487.13;;;4.09;70.58
74544;BME280;63016;55.030;38.710;2022-12-11T14:52:40;99478.56;;;4.09;70.30
74544;BME280;63016;55.030;38.710;2022-12-11T14:55:13;99499.47;;;4.06;70.42
74544;BME280;63016;55.030;38.710;2022-12-11T14:57:40;99488.66;;;4.12;69.96
74544;BME280;63016;55.030;38.710;2022-12-11T15:00:28;99488.09;;;4.08;70.22
74544;BME280;63016;55.030;38.710;2022-12-11T15:03:03;99484.28;;;4.03;70.34
74544;BME280;63016;55.030;38.710;2022-12-11T15:05:30;99468.25;;;3.99;70.41
74544;BME280;63016;55.030;38.710;2022-12-11T15:08:01;99471.06;;;3.96;70.35
74544;BME280;63016;55.030;38.710;2022-12-11T15:10:39;99460.47;;;3.90;70.71
74544;BME280;63016;55.030;38.710;2022-12-11T15:13:07;99469.84;;;3.91;70.50
74544;BME280;63016;55.030;38.710;2022-12-11T15:15:45;99457.63;;;3.83;70.56
74544;BME280;63016;55.030;38.710;2022-12-11T15:18:30;99463.06;;;3.90;70.63
74544;BME280;63016;55.030;38.710;2022-12-11T15:21:05;99475.28;;;3.88;70.75
74544;BME280;63016;55.030;38.710;2022-12-11T15:26:10;99453.94;;;3.85;70.29
74544;BME280;63016;55.030;38.710;2022-12-11T15:28:37;99463.59;;;3.83;70.57
74544;BME280;63016;55.030;38.710;2022-12-11T15:31:21;99464.56;;;3.82;70.51
74544;BME280;63016;55.030;38.710;2022-12-11T15:33:48;99467.81;;;3.84;70.78
74544;BME280;63016;55.030;38.710;2022-12-11T15:36:25;99464.28;;;3.85;71.01
74544;BME280;63016;55.030;38.710;2022-12-11T15:38:55;99452.19;;;3.86;71.16
74544;BME280;63016;55.030;38.710;2022-12-11T15:41:20;99445.41;;;3.85;70.60
74544;BME280;63016;55.030;38.710;2022-12-11T15:43:49;99439.41;;;3.84;70.78
74544;BME280;63016;55.030;38.710;2022-12-11T15:46:16;99429.75;;;3.86;70.51
74544;BME280;63016;55.030;38.710;2022-12-11T15:48:42;99426.91;;;3.80;70.45
74544;BME280;63016;55.030;38.710;2022-12-11T15:51:08;99427.47;;;3.83;70.39
74544;BME280;63016;55.030;38.710;2022-12-11T15:53:34;99427.59;;;3.82;70.63
74544;BME280;63016;55.030;38.710;2022-12-11T15:56:00;99431.00;;;3.82;70.73
74544;BME280;63016;55.030;38.710;2022-12-11T15:58:25;99443.06;;;3.82;70.92
74544;BME280;63016;55.030;38.710;2022-12-11T16:00:51;99438.47;;;3.85;70.74
74544;BME280;63016;55.030;38.710;2022-12-11T16:03:19;99428.13;;;3.85;70.67
74544;BME280;63016;55.030;38.710;2022-12-11T16:05:45;99434.00;;;3.88;70.85
74544;BME280;63016;55.030;38.710;2022-12-11T16:08:18;99429.66;;;3.88;70.59
74544;BME280;63016;55.030;38.710;2022-12-11T16:10:44;99430.59;;;3.87;70.66